createdAt,value
2023-01-28T00:01:05.733Z,3.43
2023-01-28T00:03:32.399Z,4.27
2023-01-28T00:06:04.129Z,3.83
2023-01-28T00:08:31.459Z,2.80
2023-01-28T00:11:01.797Z,2.80
2023-01-28T00:13:30.085Z,4.27
2023-01-28T00:16:01.420Z,2.77
2023-01-28T00:18:29.349Z,3.13
2023-01-28T00:21:04.184Z,2.73
2023-01-28T00:23:32.554Z,2.67
2023-01-28T00:26:00.289Z,2.60
2023-01-28T00:28:27.019Z,2.63
2023-01-28T00:30:53.769Z,1.73
2023-01-28T00:33:20.567Z,5.47
2023-01-28T00:35:47.938Z,2.77
2023-01-28T00:38:14.566Z,5.13
2023-01-28T00:40:41.234Z,3.20
2023-01-28T00:43:07.856Z,3.53
2023-01-28T00:45:34.482Z,2.63
2023-01-28T00:48:01.722Z,3.10
2023-01-28T00:50:28.469Z,2.77
2023-01-28T00:52:55.157Z,3.67
2023-01-28T00:55:21.809Z,3.60
2023-01-28T00:57:54.765Z,2.57
2023-01-28T01:00:25.709Z,3.83
2023-01-28T01:02:52.547Z,2.50
2023-01-28T01:05:21.359Z,3.17
2023-01-28T01:07:47.949Z,3.13
2023-01-28T01:10:17.999Z,3.47
2023-01-28T01:12:56.164Z,2.90
2023-01-28T01:15:22.788Z,4.50
2023-01-28T01:17:49.876Z,5.43
2023-01-28T01:20:18.585Z,2.90
2023-01-28T01:22:48.008Z,2.63
2023-01-28T01:25:16.506Z,3.33
2023-01-28T01:27:46.110Z,4.33
2023-01-28T01:30:13.087Z,3.23
2023-01-28T01:32:42.490Z,2.70
2023-01-28T01:35:10.303Z,3.40
2023-01-28T01:37:37.701Z,3.00
2023-01-28T01:40:05.160Z,3.73
2023-01-28T01:42:32.983Z,3.87
2023-01-28T01:45:05.892Z,3.97
2023-01-28T01:47:42.673Z,9.77
2023-01-28T01:50:32.638Z,3.50
2023-01-28T01:53:05.253Z,4.00
2023-01-28T01:55:33.616Z,3.63
2023-01-28T01:58:03.177Z,2.97
2023-01-28T02:00:29.824Z,5.00
2023-01-28T02:02:58.912Z,2.80
2023-01-28T02:05:25.737Z,4.07
2023-01-28T02:08:17.315Z,3.03
2023-01-28T02:10:44.472Z,2.63
2023-01-28T02:13:11.096Z,3.70
2023-01-28T02:15:37.870Z,3.97
2023-01-28T02:18:04.609Z,5.43
2023-01-28T02:20:55.499Z,5.43
2023-01-28T02:23:44.947Z,3.60
2023-01-28T02:26:23.922Z,3.40
2023-01-28T02:28:57.650Z,2.27
2023-01-28T02:31:28.029Z,3.67
2023-01-28T02:34:00.285Z,3.20
2023-01-28T02:36:36.121Z,3.30
2023-01-28T02:39:10.481Z,4.53
2023-01-28T02:44:11.909Z,2.90
2023-01-28T02:47:01.582Z,2.57
2023-01-28T02:49:48.365Z,1.93
2023-01-28T02:52:42.531Z,1.83
2023-01-28T02:55:26.297Z,3.75
2023-01-28T02:58:18.206Z,2.92
2023-01-28T03:00:57.317Z,2.47
2023-01-28T03:03:29.509Z,4.47
2023-01-28T03:06:03.695Z,4.10
2023-01-28T03:08:53.587Z,2.47
2023-01-28T03:11:39.416Z,2.00
2023-01-28T03:14:25.310Z,2.10
2023-01-28T03:17:10.505Z,3.00
2023-01-28T03:19:55.860Z,3.37
2023-01-28T03:22:42.279Z,3.23
2023-01-28T03:25:27.936Z,3.43
2023-01-28T03:28:19.095Z,2.73
2023-01-28T03:31:07.762Z,3.13
2023-01-28T03:33:53.991Z,3.10
2023-01-28T03:36:39.820Z,2.33
2023-01-28T03:39:08.725Z,2.20
2023-01-28T03:41:35.321Z,2.50
2023-01-28T03:44:20.716Z,2.20
2023-01-28T03:46:48.739Z,2.30
2023-01-28T03:49:16.496Z,2.87
2023-01-28T03:51:43.847Z,2.87
2023-01-28T03:54:10.584Z,4.20
2023-01-28T03:56:37.815Z,2.63
2023-01-28T03:59:04.471Z,3.43
2023-01-28T04:01:31.397Z,4.63
2023-01-28T04:03:58.119Z,3.10
2023-01-28T04:06:24.867Z,5.10
2023-01-28T04:08:59.199Z,4.43
2023-01-28T04:11:26.712Z,3.87
2023-01-28T04:13:53.648Z,6.10
2023-01-28T04:16:23.510Z,5.23
2023-01-28T04:18:50.169Z,3.50
2023-01-28T04:21:16.751Z,4.67
2023-01-28T04:23:43.423Z,3.97
2023-01-28T04:26:10.088Z,4.03
2023-01-28T04:28:36.710Z,5.20
2023-01-28T04:31:03.436Z,6.23
2023-01-28T04:33:33.007Z,3.43
2023-01-28T04:35:59.670Z,4.27
2023-01-28T04:38:26.456Z,4.93
2023-01-28T04:40:53.566Z,4.07
2023-01-28T04:43:20.879Z,3.53
2023-01-28T04:45:49.831Z,5.73
2023-01-28T04:48:17.645Z,3.83
2023-01-28T04:50:44.681Z,4.23
2023-01-28T04:53:11.504Z,4.93
2023-01-28T04:55:38.666Z,5.07
2023-01-28T04:58:05.309Z,4.13
2023-01-28T05:00:31.899Z,3.87
2023-01-28T05:02:58.554Z,4.93
2023-01-28T05:05:25.200Z,4.97
2023-01-28T05:07:53.745Z,2.87
2023-01-28T05:10:20.813Z,4.47
2023-01-28T05:12:48.130Z,5.67
2023-01-28T05:15:18.898Z,3.90
2023-01-28T05:17:46.233Z,3.83
2023-01-28T05:20:14.173Z,3.77
2023-01-28T05:22:41.301Z,4.67
2023-01-28T05:25:08.546Z,4.67
2023-01-28T05:27:35.250Z,3.00
2023-01-28T05:30:01.938Z,3.17
2023-01-28T05:32:28.594Z,4.07
2023-01-28T05:34:55.278Z,4.40
2023-01-28T05:37:21.939Z,3.97
2023-01-28T05:39:48.581Z,3.73
2023-01-28T05:42:15.712Z,5.10
2023-01-28T05:44:42.341Z,4.57
2023-01-28T05:47:08.963Z,4.63
2023-01-28T05:49:35.628Z,5.90
2023-01-28T05:52:03.707Z,4.97
2023-01-28T05:54:33.150Z,4.27
2023-01-28T05:56:59.761Z,4.70
2023-01-28T05:59:26.723Z,6.20
2023-01-28T06:01:53.398Z,3.33
2023-01-28T06:04:20.232Z,7.23
2023-01-28T06:06:46.894Z,4.97
2023-01-28T06:09:13.652Z,4.23
2023-01-28T06:11:40.342Z,4.90
2023-01-28T06:14:06.930Z,4.80
2023-01-28T06:16:33.563Z,6.10
2023-01-28T06:19:00.163Z,6.10
2023-01-28T06:21:28.989Z,6.67
2023-01-28T06:23:56.598Z,4.93
2023-01-28T06:26:23.162Z,3.50
2023-01-28T06:28:49.950Z,5.17
2023-01-28T06:31:16.580Z,5.53
2023-01-28T06:33:43.240Z,4.80
2023-01-28T06:36:10.065Z,4.20
2023-01-28T06:38:36.669Z,4.53
2023-01-28T06:41:03.259Z,4.27
2023-01-28T06:43:30.910Z,5.83
2023-01-28T06:45:58.322Z,3.17
2023-01-28T06:48:25.549Z,6.30
2023-01-28T06:50:52.371Z,5.27
2023-01-28T06:53:19.151Z,3.50
2023-01-28T06:55:45.791Z,5.87
2023-01-28T06:58:12.506Z,4.97
2023-01-28T07:00:39.757Z,5.73
2023-01-28T07:03:06.595Z,4.30
2023-01-28T07:05:33.407Z,4.30
2023-01-28T07:08:00.208Z,4.10
2023-01-28T07:10:26.831Z,3.97
2023-01-28T07:12:53.447Z,4.13
2023-01-28T07:15:20.065Z,6.80
2023-01-28T07:17:46.694Z,4.90
2023-01-28T07:20:15.482Z,4.47
2023-01-28T07:22:43.490Z,5.30
2023-01-28T07:25:11.411Z,4.10
2023-01-28T07:27:38.058Z,3.43
2023-01-28T07:30:05.403Z,5.27
2023-01-28T07:32:32.054Z,4.97
2023-01-28T07:34:58.835Z,4.23
2023-01-28T07:37:25.460Z,6.70
2023-01-28T07:39:52.344Z,5.43
2023-01-28T07:42:19.044Z,5.43
2023-01-28T07:44:45.710Z,7.17
2023-01-28T07:47:12.713Z,4.27
2023-01-28T07:49:42.282Z,5.50
2023-01-28T07:52:09.402Z,5.73
2023-01-28T07:54:36.059Z,4.60
2023-01-28T07:57:02.760Z,6.17
2023-01-28T07:59:29.383Z,7.27
2023-01-28T08:01:55.987Z,11.07
2023-01-28T08:04:22.718Z,48.80
2023-01-28T08:06:49.473Z,37.67
2023-01-28T08:09:16.079Z,24.37
2023-01-28T08:11:42.698Z,17.00
2023-01-28T08:14:10.971Z,10.37
2023-01-28T08:16:37.714Z,14.10
2023-01-28T08:19:04.383Z,14.20
2023-01-28T08:21:31.066Z,10.10
2023-01-28T08:23:57.859Z,9.57
2023-01-28T08:26:24.557Z,10.57
2023-01-28T08:28:51.740Z,8.97
2023-01-28T08:31:18.683Z,12.20
2023-01-28T08:33:45.564Z,7.53
2023-01-28T08:36:12.209Z,7.37
2023-01-28T08:38:38.915Z,7.83
2023-01-28T08:41:05.601Z,9.30
2023-01-28T08:43:32.238Z,15.10
2023-01-28T08:45:58.917Z,20.73
2023-01-28T08:48:25.648Z,25.97
2023-01-28T08:50:52.353Z,18.67
2023-01-28T08:53:20.214Z,22.03
2023-01-28T08:55:47.526Z,18.20
2023-01-28T08:58:16.456Z,16.73
2023-01-28T09:00:44.129Z,19.33
2023-01-28T09:03:11.123Z,15.30
2023-01-28T09:05:38.126Z,15.63
2023-01-28T09:08:13.513Z,13.50
2023-01-28T09:10:41.311Z,16.67
2023-01-28T09:13:14.000Z,12.13
2023-01-28T09:15:41.243Z,8.40
2023-01-28T09:18:07.983Z,11.03
2023-01-28T09:20:34.607Z,7.03
2023-01-28T09:23:02.620Z,5.10
2023-01-28T09:25:29.740Z,8.10
2023-01-28T09:27:59.386Z,6.50
2023-01-28T09:30:26.110Z,3.70
2023-01-28T09:32:53.877Z,2.87
2023-01-28T09:35:21.181Z,3.27
2023-01-28T09:37:48.042Z,2.93
2023-01-28T09:40:42.048Z,4.07
2023-01-28T09:43:45.959Z,8.23
2023-01-28T09:46:14.954Z,10.43
2023-01-28T09:48:47.682Z,11.13
2023-01-28T09:51:31.367Z,8.50
2023-01-28T09:54:02.581Z,9.20
2023-01-28T09:56:32.292Z,8.50
2023-01-28T09:59:10.976Z,4.63
2023-01-28T10:01:53.162Z,4.23
2023-01-28T10:04:57.436Z,5.50
2023-01-28T10:07:48.613Z,5.10
2023-01-28T10:10:18.503Z,6.70
2023-01-28T10:12:57.523Z,6.67
2023-01-28T10:15:45.401Z,5.53
2023-01-28T10:18:17.711Z,4.10
2023-01-28T10:20:49.437Z,2.80
2023-01-28T10:23:24.743Z,3.53
2023-01-28T10:25:51.407Z,2.97
2023-01-28T10:28:24.665Z,2.20
2023-01-28T10:30:51.549Z,3.97
2023-01-28T10:33:22.672Z,5.53
2023-01-28T10:35:49.442Z,7.57
2023-01-28T10:38:21.162Z,7.07
2023-01-28T10:40:48.293Z,6.30
2023-01-28T10:43:25.568Z,3.20
2023-01-28T10:45:59.450Z,5.03
2023-01-28T10:48:40.964Z,4.43
2023-01-28T10:51:07.567Z,4.10
2023-01-28T10:53:42.250Z,2.40
2023-01-28T10:56:11.194Z,3.93
2023-01-28T10:59:01.645Z,2.70
2023-01-28T11:01:47.298Z,3.33
2023-01-28T11:04:25.349Z,4.07
2023-01-28T11:07:19.074Z,3.57
2023-01-28T11:09:52.806Z,3.83
2023-01-28T11:12:30.893Z,3.53
2023-01-28T11:15:02.667Z,2.73
2023-01-28T11:17:35.634Z,3.97
2023-01-28T11:20:11.381Z,4.10
2023-01-28T11:22:42.832Z,3.77
2023-01-28T11:25:23.561Z,2.30
2023-01-28T11:27:51.765Z,1.70
2023-01-28T11:30:27.344Z,1.77
2023-01-28T11:33:07.610Z,1.10
2023-01-28T11:35:34.282Z,0.97
2023-01-28T11:38:01.093Z,2.20
2023-01-28T11:40:28.320Z,2.27
2023-01-28T11:42:59.218Z,1.17
2023-01-28T11:45:39.295Z,1.47
2023-01-28T11:48:45.816Z,2.57
2023-01-28T11:51:37.956Z,2.20
2023-01-28T11:54:23.120Z,2.83
2023-01-28T11:57:02.001Z,1.60
2023-01-28T11:59:50.098Z,0.63
2023-01-28T12:02:44.651Z,2.57
2023-01-28T12:05:40.713Z,0.52
2023-01-28T12:08:26.888Z,0.97
2023-01-28T12:11:10.828Z,1.40
2023-01-28T12:14:04.383Z,0.80
2023-01-28T12:16:58.677Z,2.50
2023-01-28T12:19:33.690Z,2.28
2023-01-28T12:22:05.617Z,2.07
2023-01-28T12:24:52.350Z,1.77
2023-01-28T12:27:31.198Z,1.13
2023-01-28T12:30:22.155Z,1.90
2023-01-28T12:33:07.747Z,3.43
2023-01-28T12:36:07.059Z,2.23
2023-01-28T12:38:59.438Z,6.03
2023-01-28T12:41:30.093Z,4.23
2023-01-28T12:44:07.374Z,1.57
2023-01-28T12:46:45.119Z,2.60
2023-01-28T12:49:30.163Z,4.33
2023-01-28T12:52:19.017Z,1.60
2023-01-28T12:54:57.153Z,1.80
2023-01-28T12:57:27.262Z,1.47
2023-01-28T13:00:03.029Z,0.80
2023-01-28T13:02:33.506Z,2.00
2023-01-28T13:05:14.295Z,2.00
2023-01-28T13:07:47.115Z,1.60
2023-01-28T13:10:21.921Z,1.17
2023-01-28T13:12:49.032Z,0.67
2023-01-28T13:15:18.019Z,1.63
2023-01-28T13:17:55.979Z,1.10
2023-01-28T13:20:31.763Z,1.13
2023-01-28T13:23:02.835Z,0.60
2023-01-28T13:25:29.474Z,0.63
2023-01-28T13:28:02.041Z,1.33
2023-01-28T13:30:31.627Z,0.93
2023-01-28T13:33:07.103Z,1.87
2023-01-28T13:35:39.050Z,2.10
2023-01-28T13:38:19.368Z,0.77
2023-01-28T13:40:58.218Z,0.90
2023-01-28T13:43:37.824Z,0.50
2023-01-28T13:46:11.155Z,1.63
2023-01-28T13:48:46.994Z,1.55
2023-01-28T13:51:33.530Z,4.20
2023-01-28T13:54:03.038Z,4.70
2023-01-28T13:56:58.798Z,3.87
2023-01-28T13:59:49.396Z,2.90
2023-01-28T14:02:34.685Z,4.07
2023-01-28T14:05:08.572Z,2.50
2023-01-28T14:07:45.313Z,1.98
2023-01-28T14:10:21.936Z,2.00
2023-01-28T14:13:10.681Z,1.63
2023-01-28T14:16:04.952Z,2.37
2023-01-28T14:18:37.504Z,1.50
2023-01-28T14:21:15.123Z,3.13
2023-01-28T14:23:48.955Z,3.07
2023-01-28T14:26:40.425Z,0.45
2023-01-28T14:29:28.775Z,1.00
2023-01-28T14:31:55.817Z,1.47
2023-01-28T14:34:31.064Z,1.50
2023-01-28T14:37:08.638Z,7.40
2023-01-28T14:39:44.684Z,4.23
2023-01-28T14:42:17.228Z,4.37
2023-01-28T14:44:44.424Z,3.73
2023-01-28T14:47:21.411Z,3.83
2023-01-28T14:50:10.819Z,3.67
2023-01-28T14:52:45.296Z,3.90
2023-01-28T14:55:21.732Z,5.03
2023-01-28T14:57:54.690Z,3.80
2023-01-28T15:00:28.194Z,3.20
2023-01-28T15:02:54.892Z,2.80
2023-01-28T15:05:24.416Z,2.20
2023-01-28T15:07:51.165Z,2.90
2023-01-28T15:10:25.801Z,3.07
2023-01-28T15:12:55.411Z,3.97
2023-01-28T15:15:30.144Z,5.50
2023-01-28T15:20:31.055Z,4.40
2023-01-28T15:22:58.010Z,4.00
2023-01-28T15:25:28.403Z,3.53
2023-01-28T15:27:56.043Z,2.53
2023-01-28T15:30:30.709Z,2.63
2023-01-28T15:33:13.146Z,0.73
2023-01-28T15:35:50.019Z,1.50
2023-01-28T15:38:20.020Z,1.77
2023-01-28T15:40:49.303Z,2.93
2023-01-28T15:43:19.058Z,2.70
2023-01-28T15:45:48.164Z,1.03
2023-01-28T15:48:15.155Z,2.10
2023-01-28T15:50:44.613Z,1.17
2023-01-28T15:53:14.140Z,4.13
2023-01-28T15:55:42.993Z,6.10
2023-01-28T15:58:16.137Z,8.83
2023-01-28T16:00:42.949Z,9.73
2023-01-28T16:03:10.268Z,9.93
2023-01-28T16:05:40.170Z,9.13
2023-01-28T16:08:12.971Z,11.50
2023-01-28T16:10:39.555Z,10.27
2023-01-28T16:13:21.775Z,12.27
2023-01-28T16:15:50.782Z,16.80
2023-01-28T16:18:30.516Z,14.47
2023-01-28T16:20:58.625Z,16.13
2023-01-28T16:23:27.540Z,7.03
2023-01-28T16:26:06.867Z,7.37
2023-01-28T16:28:33.506Z,5.40
2023-01-28T16:31:00.530Z,7.67
2023-01-28T16:33:27.459Z,6.47
2023-01-28T16:36:07.990Z,6.00
2023-01-28T16:38:35.243Z,6.50
2023-01-28T16:41:01.901Z,4.57
2023-01-28T16:43:28.475Z,6.40
2023-01-28T16:45:55.052Z,3.43
2023-01-28T16:48:22.372Z,4.47
2023-01-28T16:50:49.111Z,5.83
2023-01-28T16:53:21.902Z,4.70
2023-01-28T16:55:51.943Z,5.27
2023-01-28T16:58:23.675Z,3.63
2023-01-28T17:00:50.320Z,6.10
2023-01-28T17:03:17.070Z,7.57
2023-01-28T17:05:43.662Z,8.17
2023-01-28T17:08:10.372Z,6.00
2023-01-28T17:10:36.982Z,9.47
2023-01-28T17:13:04.031Z,11.20
2023-01-28T17:15:30.584Z,11.13
2023-01-28T17:17:57.355Z,11.10
2023-01-28T17:20:23.979Z,12.33
2023-01-28T17:22:50.597Z,7.70
2023-01-28T17:25:17.492Z,9.40
2023-01-28T17:27:44.339Z,5.63
2023-01-28T17:30:11.457Z,5.53
2023-01-28T17:32:38.107Z,10.10
2023-01-28T17:35:05.151Z,11.03
2023-01-28T17:37:31.777Z,16.87
2023-01-28T17:39:58.406Z,10.00
2023-01-28T17:42:27.314Z,13.77
2023-01-28T17:44:54.185Z,12.97
2023-01-28T17:47:21.020Z,12.33
2023-01-28T17:49:47.728Z,12.23
2023-01-28T17:52:14.396Z,15.67
2023-01-28T17:54:41.004Z,11.90
2023-01-28T17:57:07.663Z,11.20
2023-01-28T17:59:34.290Z,11.40
2023-01-28T18:02:00.940Z,8.77
2023-01-28T18:04:27.652Z,5.13
2023-01-28T18:06:54.369Z,5.63
2023-01-28T18:09:21.241Z,5.93
2023-01-28T18:11:47.968Z,8.13
2023-01-28T18:14:14.676Z,6.20
2023-01-28T18:16:41.496Z,8.07
2023-01-28T18:19:09.687Z,5.07
2023-01-28T18:21:54.182Z,6.63
2023-01-28T18:26:52.415Z,18.30
2023-01-28T18:29:20.881Z,7.27
2023-01-28T18:31:48.694Z,6.37
2023-01-28T18:34:15.745Z,5.93
2023-01-28T18:36:43.260Z,5.23
2023-01-28T18:39:22.748Z,5.33
2023-01-28T18:41:52.805Z,4.03
2023-01-28T18:44:19.447Z,3.33
2023-01-28T18:46:46.155Z,4.70
2023-01-28T18:49:12.849Z,5.63
2023-01-28T18:51:39.604Z,5.07
2023-01-28T18:54:10.624Z,6.33
2023-01-28T18:56:38.708Z,4.43
2023-01-28T18:59:06.899Z,4.57
2023-01-28T19:01:34.735Z,4.17
2023-01-28T19:04:02.199Z,4.50
2023-01-28T19:06:30.339Z,7.90
2023-01-28T19:08:59.344Z,8.23
2023-01-28T19:11:27.752Z,8.60
2023-01-28T19:13:54.489Z,5.37
2023-01-28T19:16:21.803Z,5.87
2023-01-28T19:18:53.599Z,5.73
2023-01-28T19:21:21.306Z,6.83
2023-01-28T19:23:50.196Z,7.93
2023-01-28T19:26:21.278Z,8.43
2023-01-28T19:28:49.610Z,11.70
2023-01-28T19:31:19.035Z,6.87
2023-01-28T19:33:46.246Z,7.77
2023-01-28T19:36:13.751Z,7.13
2023-01-28T19:38:43.438Z,7.27
2023-01-28T19:41:10.041Z,7.03
2023-01-28T19:43:36.779Z,6.47
2023-01-28T19:46:06.013Z,5.97
2023-01-28T19:48:33.433Z,6.77
2023-01-28T19:51:07.412Z,7.13
2023-01-28T19:53:35.244Z,6.53
2023-01-28T19:56:03.379Z,6.50
2023-01-28T19:58:34.655Z,5.60
2023-01-28T20:01:19.400Z,7.27
2023-01-28T20:03:50.200Z,10.20
2023-01-28T20:06:17.423Z,12.60
2023-01-28T20:08:44.349Z,7.87
2023-01-28T20:11:15.970Z,6.73
2023-01-28T20:13:44.939Z,5.50
2023-01-28T20:16:17.826Z,4.90
2023-01-28T20:18:49.163Z,6.63
2023-01-28T20:21:15.896Z,6.20
2023-01-28T20:23:42.608Z,10.63
2023-01-28T20:26:09.340Z,10.70
2023-01-28T20:28:37.168Z,7.00
2023-01-28T20:31:06.081Z,7.83
2023-01-28T20:33:33.267Z,6.17
2023-01-28T20:36:04.093Z,6.80
2023-01-28T20:38:34.169Z,6.63
2023-01-28T20:41:08.277Z,5.87
2023-01-28T20:43:36.184Z,5.07
2023-01-28T20:46:08.298Z,5.27
2023-01-28T20:48:34.912Z,4.83
2023-01-28T20:51:09.882Z,8.33
2023-01-28T20:53:37.227Z,4.37
2023-01-28T20:56:04.399Z,6.97
2023-01-28T20:58:31.914Z,5.83
2023-01-28T21:00:58.727Z,8.63
2023-01-28T21:03:25.717Z,5.07
2023-01-28T21:05:52.705Z,5.07
2023-01-28T21:08:19.794Z,5.33
2023-01-28T21:10:46.828Z,9.97
2023-01-28T21:13:14.961Z,19.90
2023-01-28T21:15:51.193Z,33.27
2023-01-28T21:18:17.825Z,10.00
2023-01-28T21:20:44.965Z,6.73
2023-01-28T21:23:15.056Z,6.53
2023-01-28T21:25:51.416Z,7.77
2023-01-28T21:28:19.445Z,6.57
2023-01-28T21:30:46.332Z,5.23
2023-01-28T21:33:13.270Z,7.93
2023-01-28T21:35:41.214Z,5.80
2023-01-28T21:38:08.090Z,5.37
2023-01-28T21:40:35.354Z,7.67
2023-01-28T21:43:02.083Z,5.87
2023-01-28T21:45:28.687Z,5.03
2023-01-28T21:47:55.415Z,24.00
2023-01-28T21:50:22.765Z,15.63
2023-01-28T21:52:50.404Z,8.90
2023-01-28T21:55:17.969Z,6.10
2023-01-28T21:57:44.542Z,4.13
2023-01-28T22:00:11.767Z,4.47
2023-01-28T22:02:38.699Z,4.83
2023-01-28T22:05:05.764Z,8.23
2023-01-28T22:07:32.498Z,10.97
2023-01-28T22:09:59.192Z,9.13
2023-01-28T22:12:29.547Z,7.50
2023-01-28T22:14:56.473Z,5.37
2023-01-28T22:17:23.191Z,6.17
2023-01-28T22:19:49.943Z,5.50
2023-01-28T22:22:17.379Z,6.07
2023-01-28T22:24:44.147Z,5.63
2023-01-28T22:27:10.966Z,7.27
2023-01-28T22:29:37.620Z,6.90
2023-01-28T22:32:04.990Z,5.50
2023-01-28T22:34:31.883Z,6.47
2023-01-28T22:37:01.704Z,8.07
2023-01-28T22:39:28.519Z,6.07
2023-01-28T22:41:55.193Z,5.87
2023-01-28T22:44:21.928Z,5.90
2023-01-28T22:46:48.811Z,7.30
2023-01-28T22:49:15.658Z,6.27
2023-01-28T22:51:42.802Z,5.63
2023-01-28T22:54:11.424Z,5.07
2023-01-28T22:56:38.659Z,6.30
2023-01-28T22:59:05.766Z,8.40
2023-01-28T23:01:34.982Z,6.23
2023-01-28T23:04:04.514Z,8.53
2023-01-28T23:06:31.374Z,7.97
2023-01-28T23:09:00.872Z,7.63
2023-01-28T23:11:30.517Z,7.70
2023-01-28T23:14:20.447Z,6.50
2023-01-28T23:17:06.163Z,6.10
2023-01-28T23:19:52.745Z,6.40
2023-01-28T23:22:45.083Z,7.43
2023-01-28T23:25:11.700Z,8.73
2023-01-28T23:27:38.895Z,6.83
2023-01-28T23:30:09.974Z,6.13
2023-01-28T23:32:40.028Z,9.83
2023-01-28T23:35:08.433Z,7.43
2023-01-28T23:37:35.186Z,9.63
2023-01-28T23:40:02.296Z,8.50
2023-01-28T23:42:28.992Z,7.77
2023-01-28T23:44:55.596Z,9.23
2023-01-28T23:47:22.329Z,9.40
2023-01-28T23:49:49.118Z,9.70
2023-01-28T23:52:15.701Z,7.30
2023-01-28T23:54:42.350Z,8.20
2023-01-28T23:57:09.901Z,8.67
2023-01-28T23:59:36.686Z,15.27
